sensor_id;sensor_type;location;lat;lon;timestamp;temperature;humidity
18541;DHT22;9400;50.924;5.328;2022-08-25T00:00:05;25.50;99.90
18541;DHT22;9400;50.924;5.328;2022-08-25T00:02:34;25.50;99.90
18541;DHT22;9400;50.924;5.328;2022-08-25T00:05:05;25.50;99.90
18541;DHT22;9400;50.924;5.328;2022-08-25T00:07:33;25.50;99.90
18541;DHT22;9400;50.924;5.328;2022-08-25T00:10:01;25.30;99.90
18541;DHT22;9400;50.924;5.328;2022-08-25T00:12:29;25.20;99.90
18541;DHT22;9400;50.924;5.328;2022-08-25T00:14:56;25.00;99.90
18541;DHT22;9400;50.924;5.328;2022-08-25T00:17:24;24.90;99.90
18541;DHT22;9400;50.924;5.328;2022-08-25T00:19:52;24.90;99.90
18541;DHT22;9400;50.924;5.328;2022-08-25T00:22:24;24.70;99.90
18541;DHT22;9400;50.924;5.328;2022-08-25T00:24:51;24.60;99.90
18541;DHT22;9400;50.924;5.328;2022-08-25T00:27:19;24.60;99.90
18541;DHT22;9400;50.924;5.328;2022-08-25T00:29:47;24.50;99.90
18541;DHT22;9400;50.924;5.328;2022-08-25T00:32:15;24.40;99.90
18541;DHT22;9400;50.924;5.328;2022-08-25T00:34:43;24.40;99.90
18541;DHT22;9400;50.924;5.328;2022-08-25T00:37:11;24.30;99.90
18541;DHT22;9400;50.924;5.328;2022-08-25T00:39:42;24.30;99.90
18541;DHT22;9400;50.924;5.328;2022-08-25T00:42:10;24.20;99.90
18541;DHT22;9400;50.924;5.328;2022-08-25T00:44:38;24.10;99.90
18541;DHT22;9400;50.924;5.328;2022-08-25T00:47:06;24.20;99.90
18541;DHT22;9400;50.924;5.328;2022-08-25T00:49:38;24.20;99.90
18541;DHT22;9400;50.924;5.328;2022-08-25T00:52:10;24.10;99.90
18541;DHT22;9400;50.924;5.328;2022-08-25T00:54:44;24.10;99.90
18541;DHT22;9400;50.924;5.328;2022-08-25T00:57:14;24.20;99.90
18541;DHT22;9400;50.924;5.328;2022-08-25T00:59:42;24.20;99.90
18541;DHT22;9400;50.924;5.328;2022-08-25T01:02:12;24.20;99.90
18541;DHT22;9400;50.924;5.328;2022-08-25T01:04:41;24.20;99.90
18541;DHT22;9400;50.924;5.328;2022-08-25T01:07:09;24.20;99.90
18541;DHT22;9400;50.924;5.328;2022-08-25T01:09:37;24.10;99.90
18541;DHT22;9400;50.924;5.328;2022-08-25T01:12:07;24.00;99.90
18541;DHT22;9400;50.924;5.328;2022-08-25T01:14:36;23.90;99.90
18541;DHT22;9400;50.924;5.328;2022-08-25T01:17:05;23.90;99.90
18541;DHT22;9400;50.924;5.328;2022-08-25T01:19:33;23.90;99.90
18541;DHT22;9400;50.924;5.328;2022-08-25T01:22:03;23.90;99.90
18541;DHT22;9400;50.924;5.328;2022-08-25T01:24:36;23.90;99.90
18541;DHT22;9400;50.924;5.328;2022-08-25T01:27:05;23.80;99.90
18541;DHT22;9400;50.924;5.328;2022-08-25T01:29:34;23.80;99.90
18541;DHT22;9400;50.924;5.328;2022-08-25T01:32:05;23.70;99.90
18541;DHT22;9400;50.924;5.328;2022-08-25T01:34:35;23.50;99.90
18541;DHT22;9400;50.924;5.328;2022-08-25T01:37:06;23.50;99.90
18541;DHT22;9400;50.924;5.328;2022-08-25T01:39:34;23.50;99.90
18541;DHT22;9400;50.924;5.328;2022-08-25T01:42:17;23.40;99.90
18541;DHT22;9400;50.924;5.328;2022-08-25T01:44:47;23.50;99.90
18541;DHT22;9400;50.924;5.328;2022-08-25T01:47:14;23.50;99.90
18541;DHT22;9400;50.924;5.328;2022-08-25T01:49:42;23.40;99.90
18541;DHT22;9400;50.924;5.328;2022-08-25T01:52:18;23.40;99.90
18541;DHT22;9400;50.924;5.328;2022-08-25T01:54:46;23.30;99.90
18541;DHT22;9400;50.924;5.328;2022-08-25T01:57:15;23.30;99.90
18541;DHT22;9400;50.924;5.328;2022-08-25T01:59:43;23.30;99.90
18541;DHT22;9400;50.924;5.328;2022-08-25T02:02:11;23.40;99.90
18541;DHT22;9400;50.924;5.328;2022-08-25T02:04:39;23.30;99.90
18541;DHT22;9400;50.924;5.328;2022-08-25T02:07:08;23.10;99.90
18541;DHT22;9400;50.924;5.328;2022-08-25T02:09:37;23.00;99.90
18541;DHT22;9400;50.924;5.328;2022-08-25T02:12:05;23.00;99.90
18541;DHT22;9400;50.924;5.328;2022-08-25T02:14:35;23.00;99.90
18541;DHT22;9400;50.924;5.328;2022-08-25T02:17:03;22.90;99.90
18541;DHT22;9400;50.924;5.328;2022-08-25T02:19:32;22.80;99.90
18541;DHT22;9400;50.924;5.328;2022-08-25T02:22:00;22.70;99.90
18541;DHT22;9400;50.924;5.328;2022-08-25T02:24:28;22.70;99.90
18541;DHT22;9400;50.924;5.328;2022-08-25T02:27:00;22.60;99.90
18541;DHT22;9400;50.924;5.328;2022-08-25T02:29:29;22.70;99.90
18541;DHT22;9400;50.924;5.328;2022-08-25T02:31:56;22.60;99.90
18541;DHT22;9400;50.924;5.328;2022-08-25T02:34:24;22.60;99.90
18541;DHT22;9400;50.924;5.328;2022-08-25T02:36:51;22.60;99.90
18541;DHT22;9400;50.924;5.328;2022-08-25T02:39:23;22.50;99.90
18541;DHT22;9400;50.924;5.328;2022-08-25T02:41:51;22.50;99.90
18541;DHT22;9400;50.924;5.328;2022-08-25T02:44:20;22.50;99.90
18541;DHT22;9400;50.924;5.328;2022-08-25T02:46:48;22.50;99.90
18541;DHT22;9400;50.924;5.328;2022-08-25T02:49:18;22.40;99.90
18541;DHT22;9400;50.924;5.328;2022-08-25T02:51:46;22.40;99.90
18541;DHT22;9400;50.924;5.328;2022-08-25T02:54:13;22.40;99.90
18541;DHT22;9400;50.924;5.328;2022-08-25T02:56:41;22.50;99.90
18541;DHT22;9400;50.924;5.328;2022-08-25T02:59:08;22.50;99.90
18541;DHT22;9400;50.924;5.328;2022-08-25T03:01:37;22.50;99.90
18541;DHT22;9400;50.924;5.328;2022-08-25T03:04:05;22.50;99.90
18541;DHT22;9400;50.924;5.328;2022-08-25T03:06:33;22.50;99.90
18541;DHT22;9400;50.924;5.328;2022-08-25T03:09:01;22.40;99.90
18541;DHT22;9400;50.924;5.328;2022-08-25T03:11:29;22.30;99.90
18541;DHT22;9400;50.924;5.328;2022-08-25T03:13:56;22.20;99.90
18541;DHT22;9400;50.924;5.328;2022-08-25T03:16:25;22.20;99.90
18541;DHT22;9400;50.924;5.328;2022-08-25T03:18:56;22.20;99.90
18541;DHT22;9400;50.924;5.328;2022-08-25T03:21:25;22.20;99.90
18541;DHT22;9400;50.924;5.328;2022-08-25T03:23:52;22.20;99.90
18541;DHT22;9400;50.924;5.328;2022-08-25T03:26:20;22.20;99.90
18541;DHT22;9400;50.924;5.328;2022-08-25T03:29:06;22.20;99.90
18541;DHT22;9400;50.924;5.328;2022-08-25T03:31:34;22.20;99.90
18541;DHT22;9400;50.924;5.328;2022-08-25T03:34:03;22.10;99.90
18541;DHT22;9400;50.924;5.328;2022-08-25T03:36:31;22.10;99.90
18541;DHT22;9400;50.924;5.328;2022-08-25T03:38:59;22.00;99.90
18541;DHT22;9400;50.924;5.328;2022-08-25T03:41:29;22.10;99.90
18541;DHT22;9400;50.924;5.328;2022-08-25T03:43:58;22.00;99.90
18541;DHT22;9400;50.924;5.328;2022-08-25T03:46:28;21.90;99.90
18541;DHT22;9400;50.924;5.328;2022-08-25T03:48:58;21.80;99.90
18541;DHT22;9400;50.924;5.328;2022-08-25T03:51:31;21.80;99.90
18541;DHT22;9400;50.924;5.328;2022-08-25T03:54:00;21.80;99.90
18541;DHT22;9400;50.924;5.328;2022-08-25T03:56:28;21.80;99.90
18541;DHT22;9400;50.924;5.328;2022-08-25T03:58:56;21.80;99.90
18541;DHT22;9400;50.924;5.328;2022-08-25T04:01:24;21.70;99.90
18541;DHT22;9400;50.924;5.328;2022-08-25T04:03:52;21.50;99.90
18541;DHT22;9400;50.924;5.328;2022-08-25T04:06:20;21.40;99.90
18541;DHT22;9400;50.924;5.328;2022-08-25T04:08:50;21.30;99.90
18541;DHT22;9400;50.924;5.328;2022-08-25T04:11:20;21.30;99.90
18541;DHT22;9400;50.924;5.328;2022-08-25T04:13:49;21.30;99.90
18541;DHT22;9400;50.924;5.328;2022-08-25T04:16:19;21.30;99.90
18541;DHT22;9400;50.924;5.328;2022-08-25T04:18:48;21.30;99.90
18541;DHT22;9400;50.924;5.328;2022-08-25T04:21:17;21.30;99.90
18541;DHT22;9400;50.924;5.328;2022-08-25T04:23:45;21.30;99.90
18541;DHT22;9400;50.924;5.328;2022-08-25T04:26:18;21.30;99.90
18541;DHT22;9400;50.924;5.328;2022-08-25T04:28:47;21.30;99.90
18541;DHT22;9400;50.924;5.328;2022-08-25T04:31:16;21.20;99.90
18541;DHT22;9400;50.924;5.328;2022-08-25T04:33:44;21.20;99.90
18541;DHT22;9400;50.924;5.328;2022-08-25T04:36:14;21.10;99.90
18541;DHT22;9400;50.924;5.328;2022-08-25T04:38:43;21.10;99.90
18541;DHT22;9400;50.924;5.328;2022-08-25T04:41:13;21.20;99.90
18541;DHT22;9400;50.924;5.328;2022-08-25T04:43:42;21.20;99.90
18541;DHT22;9400;50.924;5.328;2022-08-25T04:46:13;21.30;99.90
18541;DHT22;9400;50.924;5.328;2022-08-25T04:48:41;21.50;99.90
18541;DHT22;9400;50.924;5.328;2022-08-25T04:51:10;21.70;99.90
18541;DHT22;9400;50.924;5.328;2022-08-25T04:53:38;21.70;99.90
18541;DHT22;9400;50.924;5.328;2022-08-25T04:56:07;21.70;99.90
18541;DHT22;9400;50.924;5.328;2022-08-25T04:58:35;21.70;99.90
18541;DHT22;9400;50.924;5.328;2022-08-25T05:01:06;21.70;99.90
18541;DHT22;9400;50.924;5.328;2022-08-25T05:03:34;21.60;99.90
18541;DHT22;9400;50.924;5.328;2022-08-25T05:06:02;21.60;99.90
18541;DHT22;9400;50.924;5.328;2022-08-25T05:08:32;21.60;99.90
18541;DHT22;9400;50.924;5.328;2022-08-25T05:11:04;21.70;99.90
18541;DHT22;9400;50.924;5.328;2022-08-25T05:13:33;21.70;99.90
18541;DHT22;9400;50.924;5.328;2022-08-25T05:16:02;21.70;99.90
18541;DHT22;9400;50.924;5.328;2022-08-25T05:18:32;21.70;99.90
18541;DHT22;9400;50.924;5.328;2022-08-25T05:21:02;21.80;99.90
18541;DHT22;9400;50.924;5.328;2022-08-25T05:23:30;21.90;99.90
18541;DHT22;9400;50.924;5.328;2022-08-25T05:26:03;22.00;99.90
18541;DHT22;9400;50.924;5.328;2022-08-25T05:28:31;22.00;99.90
18541;DHT22;9400;50.924;5.328;2022-08-25T05:31:00;22.00;99.90
18541;DHT22;9400;50.924;5.328;2022-08-25T05:33:28;22.00;99.90
18541;DHT22;9400;50.924;5.328;2022-08-25T05:35:58;22.10;99.90
18541;DHT22;9400;50.924;5.328;2022-08-25T05:38:26;22.10;99.90
18541;DHT22;9400;50.924;5.328;2022-08-25T05:40:56;22.10;99.90
18541;DHT22;9400;50.924;5.328;2022-08-25T05:43:25;22.30;99.90
18541;DHT22;9400;50.924;5.328;2022-08-25T05:45:54;22.30;99.90
18541;DHT22;9400;50.924;5.328;2022-08-25T05:48:23;22.50;99.90
18541;DHT22;9400;50.924;5.328;2022-08-25T05:50:51;22.50;99.90
18541;DHT22;9400;50.924;5.328;2022-08-25T05:53:21;22.50;99.90
18541;DHT22;9400;50.924;5.328;2022-08-25T05:55:50;22.50;99.90
18541;DHT22;9400;50.924;5.328;2022-08-25T05:58:19;22.50;99.90
18541;DHT22;9400;50.924;5.328;2022-08-25T06:00:48;22.50;99.90
18541;DHT22;9400;50.924;5.328;2022-08-25T06:03:16;22.50;99.90
18541;DHT22;9400;50.924;5.328;2022-08-25T06:05:43;22.60;99.90
18541;DHT22;9400;50.924;5.328;2022-08-25T06:08:11;22.70;99.90
18541;DHT22;9400;50.924;5.328;2022-08-25T06:10:41;22.80;99.90
18541;DHT22;9400;50.924;5.328;2022-08-25T06:13:10;22.80;99.90
18541;DHT22;9400;50.924;5.328;2022-08-25T06:15:37;22.80;99.90
18541;DHT22;9400;50.924;5.328;2022-08-25T06:18:08;22.90;99.90
18541;DHT22;9400;50.924;5.328;2022-08-25T06:20:36;22.80;99.90
18541;DHT22;9400;50.924;5.328;2022-08-25T06:23:04;22.90;99.90
18541;DHT22;9400;50.924;5.328;2022-08-25T06:25:31;23.10;99.90
18541;DHT22;9400;50.924;5.328;2022-08-25T06:28:02;23.10;99.90
18541;DHT22;9400;50.924;5.328;2022-08-25T06:30:29;23.10;99.90
18541;DHT22;9400;50.924;5.328;2022-08-25T06:32:57;23.30;99.90
18541;DHT22;9400;50.924;5.328;2022-08-25T06:35:24;23.50;99.90
18541;DHT22;9400;50.924;5.328;2022-08-25T06:37:53;23.50;99.90
18541;DHT22;9400;50.924;5.328;2022-08-25T06:40:23;23.50;99.90
18541;DHT22;9400;50.924;5.328;2022-08-25T06:42:52;23.60;99.90
18541;DHT22;9400;50.924;5.328;2022-08-25T06:45:21;23.70;99.90
18541;DHT22;9400;50.924;5.328;2022-08-25T06:47:49;23.80;99.90
18541;DHT22;9400;50.924;5.328;2022-08-25T06:50:21;24.00;99.90
18541;DHT22;9400;50.924;5.328;2022-08-25T06:52:49;24.30;99.90
18541;DHT22;9400;50.924;5.328;2022-08-25T06:55:17;24.50;99.90
18541;DHT22;9400;50.924;5.328;2022-08-25T06:57:44;24.70;99.90
18541;DHT22;9400;50.924;5.328;2022-08-25T07:00:13;24.80;99.90
18541;DHT22;9400;50.924;5.328;2022-08-25T07:02:45;24.90;99.90
18541;DHT22;9400;50.924;5.328;2022-08-25T07:05:12;25.00;99.90
18541;DHT22;9400;50.924;5.328;2022-08-25T07:07:40;25.10;99.90
18541;DHT22;9400;50.924;5.328;2022-08-25T07:10:09;25.30;99.90
18541;DHT22;9400;50.924;5.328;2022-08-25T07:12:39;25.50;99.90
18541;DHT22;9400;50.924;5.328;2022-08-25T07:15:07;25.70;99.90
18541;DHT22;9400;50.924;5.328;2022-08-25T07:17:35;26.00;99.90
18541;DHT22;9400;50.924;5.328;2022-08-25T07:20:05;26.10;99.90
18541;DHT22;9400;50.924;5.328;2022-08-25T07:22:32;26.30;99.90
18541;DHT22;9400;50.924;5.328;2022-08-25T07:25:00;26.50;99.90
18541;DHT22;9400;50.924;5.328;2022-08-25T07:27:28;26.60;99.90
18541;DHT22;9400;50.924;5.328;2022-08-25T07:29:57;26.70;99.90
18541;DHT22;9400;50.924;5.328;2022-08-25T07:32:26;26.80;99.90
18541;DHT22;9400;50.924;5.328;2022-08-25T07:34:53;26.90;99.90
18541;DHT22;9400;50.924;5.328;2022-08-25T07:37:40;27.10;99.90
18541;DHT22;9400;50.924;5.328;2022-08-25T07:40:11;27.40;99.90
18541;DHT22;9400;50.924;5.328;2022-08-25T07:42:43;27.60;99.90
18541;DHT22;9400;50.924;5.328;2022-08-25T07:45:12;27.80;99.90
18541;DHT22;9400;50.924;5.328;2022-08-25T07:47:40;27.90;99.90
18541;DHT22;9400;50.924;5.328;2022-08-25T07:50:10;28.00;99.90
18541;DHT22;9400;50.924;5.328;2022-08-25T07:52:43;28.00;99.90
18541;DHT22;9400;50.924;5.328;2022-08-25T07:55:11;28.10;99.90
18541;DHT22;9400;50.924;5.328;2022-08-25T07:57:39;28.10;99.90
18541;DHT22;9400;50.924;5.328;2022-08-25T08:00:08;28.10;99.90
18541;DHT22;9400;50.924;5.328;2022-08-25T08:02:37;28.10;99.90
18541;DHT22;9400;50.924;5.328;2022-08-25T08:05:07;28.00;99.90
18541;DHT22;9400;50.924;5.328;2022-08-25T08:07:36;28.10;99.90
18541;DHT22;9400;50.924;5.328;2022-08-25T08:10:12;28.00;99.90
18541;DHT22;9400;50.924;5.328;2022-08-25T08:12:42;28.10;99.90
18541;DHT22;9400;50.924;5.328;2022-08-25T08:15:13;28.20;99.90
18541;DHT22;9400;50.924;5.328;2022-08-25T08:17:43;28.40;99.90
18541;DHT22;9400;50.924;5.328;2022-08-25T08:20:12;28.50;99.90
18541;DHT22;9400;50.924;5.328;2022-08-25T08:22:43;28.50;99.90
18541;DHT22;9400;50.924;5.328;2022-08-25T08:25:14;28.40;99.90
18541;DHT22;9400;50.924;5.328;2022-08-25T08:27:42;28.40;99.90
18541;DHT22;9400;50.924;5.328;2022-08-25T08:30:12;28.50;99.90
18541;DHT22;9400;50.924;5.328;2022-08-25T08:32:40;28.60;99.90
18541;DHT22;9400;50.924;5.328;2022-08-25T08:35:09;28.80;99.90
18541;DHT22;9400;50.924;5.328;2022-08-25T08:37:36;28.90;99.90
18541;DHT22;9400;50.924;5.328;2022-08-25T08:40:09;29.10;99.90
18541;DHT22;9400;50.924;5.328;2022-08-25T08:42:48;29.20;99.90
18541;DHT22;9400;50.924;5.328;2022-08-25T08:45:34;29.20;99.90
18541;DHT22;9400;50.924;5.328;2022-08-25T08:48:25;29.40;99.90
18541;DHT22;9400;50.924;5.328;2022-08-25T08:51:00;29.40;99.90
18541;DHT22;9400;50.924;5.328;2022-08-25T08:53:40;29.50;99.90
18541;DHT22;9400;50.924;5.328;2022-08-25T08:56:13;29.60;99.90
18541;DHT22;9400;50.924;5.328;2022-08-25T08:58:48;29.50;99.90
18541;DHT22;9400;50.924;5.328;2022-08-25T09:01:23;29.40;99.90
18541;DHT22;9400;50.924;5.328;2022-08-25T09:03:57;29.60;99.90
18541;DHT22;9400;50.924;5.328;2022-08-25T09:06:31;29.70;99.90
18541;DHT22;9400;50.924;5.328;2022-08-25T09:09:04;29.90;99.90
18541;DHT22;9400;50.924;5.328;2022-08-25T09:11:47;30.00;99.90
18541;DHT22;9400;50.924;5.328;2022-08-25T09:14:38;30.10;99.90
18541;DHT22;9400;50.924;5.328;2022-08-25T09:17:15;30.10;99.90
18541;DHT22;9400;50.924;5.328;2022-08-25T09:20:07;30.20;99.90
18541;DHT22;9400;50.924;5.328;2022-08-25T09:22:50;30.20;99.90
18541;DHT22;9400;50.924;5.328;2022-08-25T09:25:22;30.30;99.90
18541;DHT22;9400;50.924;5.328;2022-08-25T09:28:05;30.40;99.90
18541;DHT22;9400;50.924;5.328;2022-08-25T09:30:50;30.50;99.90
18541;DHT22;9400;50.924;5.328;2022-08-25T09:33:37;30.60;99.90
18541;DHT22;9400;50.924;5.328;2022-08-25T09:36:05;30.60;99.90
18541;DHT22;9400;50.924;5.328;2022-08-25T09:38:38;30.70;99.90
18541;DHT22;9400;50.924;5.328;2022-08-25T09:41:07;30.80;99.90
18541;DHT22;9400;50.924;5.328;2022-08-25T09:43:40;30.80;99.90
18541;DHT22;9400;50.924;5.328;2022-08-25T09:46:12;30.90;99.90
18541;DHT22;9400;50.924;5.328;2022-08-25T09:48:46;31.00;99.90
18541;DHT22;9400;50.924;5.328;2022-08-25T09:51:19;31.30;99.90
18541;DHT22;9400;50.924;5.328;2022-08-25T09:53:53;31.40;99.90
18541;DHT22;9400;50.924;5.328;2022-08-25T09:56:23;31.20;99.90
18541;DHT22;9400;50.924;5.328;2022-08-25T09:58:53;31.30;99.90
18541;DHT22;9400;50.924;5.328;2022-08-25T10:01:23;31.30;99.90
18541;DHT22;9400;50.924;5.328;2022-08-25T10:04:00;31.50;99.90
18541;DHT22;9400;50.924;5.328;2022-08-25T10:06:35;31.60;99.90
18541;DHT22;9400;50.924;5.328;2022-08-25T10:09:13;31.80;99.90
18541;DHT22;9400;50.924;5.328;2022-08-25T10:11:49;32.00;99.90
18541;DHT22;9400;50.924;5.328;2022-08-25T10:14:26;32.00;99.90
18541;DHT22;9400;50.924;5.328;2022-08-25T10:17:13;32.10;99.90
18541;DHT22;9400;50.924;5.328;2022-08-25T10:19:41;32.20;99.90
18541;DHT22;9400;50.924;5.328;2022-08-25T10:22:11;32.40;99.90
18541;DHT22;9400;50.924;5.328;2022-08-25T10:24:50;32.40;99.90
18541;DHT22;9400;50.924;5.328;2022-08-25T10:27:23;32.40;99.90
18541;DHT22;9400;50.924;5.328;2022-08-25T10:30:10;32.40;99.90
18541;DHT22;9400;50.924;5.328;2022-08-25T10:33:02;32.60;99.90
18541;DHT22;9400;50.924;5.328;2022-08-25T10:35:46;32.60;99.90
18541;DHT22;9400;50.924;5.328;2022-08-25T10:38:31;32.60;99.90
18541;DHT22;9400;50.924;5.328;2022-08-25T10:41:07;32.70;99.90
18541;DHT22;9400;50.924;5.328;2022-08-25T10:43:43;32.80;99.90
18541;DHT22;9400;50.924;5.328;2022-08-25T10:46:27;33.00;99.90
18541;DHT22;9400;50.924;5.328;2022-08-25T10:49:03;33.20;99.90
18541;DHT22;9400;50.924;5.328;2022-08-25T10:51:45;33.20;99.90
18541;DHT22;9400;50.924;5.328;2022-08-25T10:54:31;33.30;99.90
18541;DHT22;9400;50.924;5.328;2022-08-25T10:57:07;33.40;99.90
18541;DHT22;9400;50.924;5.328;2022-08-25T10:59:59;33.50;99.90
18541;DHT22;9400;50.924;5.328;2022-08-25T11:02:53;33.90;99.90
18541;DHT22;9400;50.924;5.328;2022-08-25T11:05:30;33.60;99.90
18541;DHT22;9400;50.924;5.328;2022-08-25T11:08:12;33.80;99.90
18541;DHT22;9400;50.924;5.328;2022-08-25T11:10:46;33.90;99.80
18541;DHT22;9400;50.924;5.328;2022-08-25T11:13:29;34.30;99.60
18541;DHT22;9400;50.924;5.328;2022-08-25T11:16:02;34.40;98.50
18541;DHT22;9400;50.924;5.328;2022-08-25T11:18:32;34.50;99.30
18541;DHT22;9400;50.924;5.328;2022-08-25T11:21:08;34.60;98.70
18541;DHT22;9400;50.924;5.328;2022-08-25T11:23:40;34.60;98.60
18541;DHT22;9400;50.924;5.328;2022-08-25T11:26:13;34.60;98.10
18541;DHT22;9400;50.924;5.328;2022-08-25T11:28:51;34.90;97.70
18541;DHT22;9400;50.924;5.328;2022-08-25T11:31:23;34.90;98.00
18541;DHT22;9400;50.924;5.328;2022-08-25T11:33:56;34.50;98.00
18541;DHT22;9400;50.924;5.328;2022-08-25T11:36:29;34.50;97.70
18541;DHT22;9400;50.924;5.328;2022-08-25T11:39:10;34.50;97.50
18541;DHT22;9400;50.924;5.328;2022-08-25T11:41:51;34.50;97.30
18541;DHT22;9400;50.924;5.328;2022-08-25T11:44:46;34.90;97.00
18541;DHT22;9400;50.924;5.328;2022-08-25T11:47:35;35.20;96.80
18541;DHT22;9400;50.924;5.328;2022-08-25T11:50:05;35.30;96.60
18541;DHT22;9400;50.924;5.328;2022-08-25T11:52:46;35.80;96.80
18541;DHT22;9400;50.924;5.328;2022-08-25T11:55:18;35.70;96.60
18541;DHT22;9400;50.924;5.328;2022-08-25T11:57:49;35.80;95.90
18541;DHT22;9400;50.924;5.328;2022-08-25T12:00:36;35.90;95.70
18541;DHT22;9400;50.924;5.328;2022-08-25T12:06:20;37.00;95.40
18541;DHT22;9400;50.924;5.328;2022-08-25T12:08:53;37.30;94.10
18541;DHT22;9400;50.924;5.328;2022-08-25T12:11:50;37.30;94.20
18541;DHT22;9400;50.924;5.328;2022-08-25T12:14:42;37.70;94.10
18541;DHT22;9400;50.924;5.328;2022-08-25T12:17:36;37.70;94.30
18541;DHT22;9400;50.924;5.328;2022-08-25T12:20:06;37.60;94.00
18541;DHT22;9400;50.924;5.328;2022-08-25T12:22:53;37.40;93.80
18541;DHT22;9400;50.924;5.328;2022-08-25T12:28:50;37.90;93.60
18541;DHT22;9400;50.924;5.328;2022-08-25T12:31:28;37.60;92.20
18541;DHT22;9400;50.924;5.328;2022-08-25T12:34:10;36.70;92.50
18541;DHT22;9400;50.924;5.328;2022-08-25T12:36:57;36.20;92.90
18541;DHT22;9400;50.924;5.328;2022-08-25T12:39:30;35.80;93.10
18541;DHT22;9400;50.924;5.328;2022-08-25T12:42:03;35.60;92.90
18541;DHT22;9400;50.924;5.328;2022-08-25T12:44:43;35.60;93.10
18541;DHT22;9400;50.924;5.328;2022-08-25T12:47:29;35.40;93.10
18541;DHT22;9400;50.924;5.328;2022-08-25T12:50:26;35.40;93.50
18541;DHT22;9400;50.924;5.328;2022-08-25T12:52:58;35.40;92.80
18541;DHT22;9400;50.924;5.328;2022-08-25T12:55:33;34.80;92.90
18541;DHT22;9400;50.924;5.328;2022-08-25T12:58:02;34.80;92.70
18541;DHT22;9400;50.924;5.328;2022-08-25T13:00:46;34.90;93.30
18541;DHT22;9400;50.924;5.328;2022-08-25T13:03:36;34.70;93.30
18541;DHT22;9400;50.924;5.328;2022-08-25T13:06:36;34.60;93.50
18541;DHT22;9400;50.924;5.328;2022-08-25T13:12:15;35.30;92.70
18541;DHT22;9400;50.924;5.328;2022-08-25T13:14:53;35.70;92.20
18541;DHT22;9400;50.924;5.328;2022-08-25T13:17:27;35.70;92.30
18541;DHT22;9400;50.924;5.328;2022-08-25T13:20:22;35.40;91.80
18541;DHT22;9400;50.924;5.328;2022-08-25T13:22:51;36.10;92.20
18541;DHT22;9400;50.924;5.328;2022-08-25T13:25:21;36.20;91.60
18541;DHT22;9400;50.924;5.328;2022-08-25T13:27:51;36.80;91.70
18541;DHT22;9400;50.924;5.328;2022-08-25T13:30:26;38.60;91.40
18541;DHT22;9400;50.924;5.328;2022-08-25T13:32:57;39.60;90.80
18541;DHT22;9400;50.924;5.328;2022-08-25T13:35:26;39.10;91.00
18541;DHT22;9400;50.924;5.328;2022-08-25T13:38:11;39.00;90.10
18541;DHT22;9400;50.924;5.328;2022-08-25T13:40:38;39.80;89.60
18541;DHT22;9400;50.924;5.328;2022-08-25T13:43:09;40.10;88.50
18541;DHT22;9400;50.924;5.328;2022-08-25T13:45:39;41.20;86.70
18541;DHT22;9400;50.924;5.328;2022-08-25T13:48:09;42.10;86.40
18541;DHT22;9400;50.924;5.328;2022-08-25T13:50:42;41.50;83.50
18541;DHT22;9400;50.924;5.328;2022-08-25T13:53:13;39.50;84.00
18541;DHT22;9400;50.924;5.328;2022-08-25T13:55:49;38.30;84.20
18541;DHT22;9400;50.924;5.328;2022-08-25T13:58:19;38.90;83.90
18541;DHT22;9400;50.924;5.328;2022-08-25T14:00:58;39.40;82.80
18541;DHT22;9400;50.924;5.328;2022-08-25T14:03:34;39.60;82.70
18541;DHT22;9400;50.924;5.328;2022-08-25T14:06:08;39.20;82.20
18541;DHT22;9400;50.924;5.328;2022-08-25T14:08:38;40.30;82.80
18541;DHT22;9400;50.924;5.328;2022-08-25T14:11:09;41.60;82.00
18541;DHT22;9400;50.924;5.328;2022-08-25T14:13:39;42.10;79.70
18541;DHT22;9400;50.924;5.328;2022-08-25T14:16:11;42.50;79.50
18541;DHT22;9400;50.924;5.328;2022-08-25T14:18:48;43.00;79.00
18541;DHT22;9400;50.924;5.328;2022-08-25T14:21:24;44.00;78.00
18541;DHT22;9400;50.924;5.328;2022-08-25T14:23:54;43.30;75.20
18541;DHT22;9400;50.924;5.328;2022-08-25T14:26:23;42.90;74.60
18541;DHT22;9400;50.924;5.328;2022-08-25T14:28:53;42.10;75.50
18541;DHT22;9400;50.924;5.328;2022-08-25T14:31:28;42.80;74.90
18541;DHT22;9400;50.924;5.328;2022-08-25T14:33:59;42.90;74.60
18541;DHT22;9400;50.924;5.328;2022-08-25T14:36:29;42.80;73.30
18541;DHT22;9400;50.924;5.328;2022-08-25T14:38:57;43.40;74.30
18541;DHT22;9400;50.924;5.328;2022-08-25T14:41:26;43.50;72.50
18541;DHT22;9400;50.924;5.328;2022-08-25T14:43:53;43.10;71.90
18541;DHT22;9400;50.924;5.328;2022-08-25T14:46:22;43.40;71.50
18541;DHT22;9400;50.924;5.328;2022-08-25T14:48:57;43.10;70.90
18541;DHT22;9400;50.924;5.328;2022-08-25T14:51:26;43.40;70.60
18541;DHT22;9400;50.924;5.328;2022-08-25T14:53:56;43.40;70.80
18541;DHT22;9400;50.924;5.328;2022-08-25T14:56:24;43.90;71.10
18541;DHT22;9400;50.924;5.328;2022-08-25T14:58:52;44.70;70.10
18541;DHT22;9400;50.924;5.328;2022-08-25T15:01:21;44.80;70.50
18541;DHT22;9400;50.924;5.328;2022-08-25T15:03:53;44.40;68.70
18541;DHT22;9400;50.924;5.328;2022-08-25T15:06:27;43.80;67.10
18541;DHT22;9400;50.924;5.328;2022-08-25T15:08:56;43.90;68.30
18541;DHT22;9400;50.924;5.328;2022-08-25T15:11:40;44.30;68.50
18541;DHT22;9400;50.924;5.328;2022-08-25T15:14:10;43.40;66.40
18541;DHT22;9400;50.924;5.328;2022-08-25T15:16:43;43.80;66.60
18541;DHT22;9400;50.924;5.328;2022-08-25T15:19:13;44.30;65.80
18541;DHT22;9400;50.924;5.328;2022-08-25T15:21:44;43.70;65.40
18541;DHT22;9400;50.924;5.328;2022-08-25T15:24:14;43.80;65.80
18541;DHT22;9400;50.924;5.328;2022-08-25T15:26:45;43.00;64.70
18541;DHT22;9400;50.924;5.328;2022-08-25T15:29:14;42.80;64.80
18541;DHT22;9400;50.924;5.328;2022-08-25T15:31:42;41.90;64.70
18541;DHT22;9400;50.924;5.328;2022-08-25T15:34:14;42.10;64.20
18541;DHT22;9400;50.924;5.328;2022-08-25T15:36:43;42.70;64.30
18541;DHT22;9400;50.924;5.328;2022-08-25T15:39:11;43.50;64.00
18541;DHT22;9400;50.924;5.328;2022-08-25T15:41:39;43.00;63.40
18541;DHT22;9400;50.924;5.328;2022-08-25T15:44:07;43.00;63.90
18541;DHT22;9400;50.924;5.328;2022-08-25T15:46:40;42.90;63.50
18541;DHT22;9400;50.924;5.328;2022-08-25T15:49:07;43.40;63.20
18541;DHT22;9400;50.924;5.328;2022-08-25T15:51:35;42.90;62.70
18541;DHT22;9400;50.924;5.328;2022-08-25T15:54:04;42.50;62.90
18541;DHT22;9400;50.924;5.328;2022-08-25T15:56:33;43.10;62.50
18541;DHT22;9400;50.924;5.328;2022-08-25T15:59:04;43.20;62.90
18541;DHT22;9400;50.924;5.328;2022-08-25T16:01:32;43.40;62.60
18541;DHT22;9400;50.924;5.328;2022-08-25T16:04:00;42.50;61.50
18541;DHT22;9400;50.924;5.328;2022-08-25T16:06:29;40.60;61.10
18541;DHT22;9400;50.924;5.328;2022-08-25T16:08:57;40.60;62.50
18541;DHT22;9400;50.924;5.328;2022-08-25T16:11:28;41.50;63.40
18541;DHT22;9400;50.924;5.328;2022-08-25T16:13:56;42.30;62.20
18541;DHT22;9400;50.924;5.328;2022-08-25T16:16:26;42.80;62.10
18541;DHT22;9400;50.924;5.328;2022-08-25T16:18:55;42.10;61.50
18541;DHT22;9400;50.924;5.328;2022-08-25T16:21:26;41.60;61.80
18541;DHT22;9400;50.924;5.328;2022-08-25T16:23:55;41.50;61.70